Aérodrome :
LOGIN :

S'inscrire | Disclaimer

   EN    FR    IT 

 










Légende :    VFR   VFR Marginal   IFR   IFR Intensif   IFR Très Intensif
Visi : 
Plafond : 
>= 8 km
>= 3000ft
5 à 8 km
1000 à 3000 ft
1500m à 5 km
500 à 1000 ft
800 à 1500m
200 à 500 ft
< 800m
< 200 ft
Symboles :   Orages  Brouillard  Fortes neiges  Fortes précipitations  Vent > 20 kt
SIGMETs :   Divers  Orages  Givrage  Turbulence  Onde Orograph.  Cendres Volcan.






- Altitude de l'aérodrome : 3368 ft


LSGC - Les Eplatures

DERNIER METAR :
  • 140120Z AUTO 21006KT 150V270 9999 BKN011 00/M02 Q1000

METARs EXPIRÉS :
  • 140050Z AUTO 22005KT 160V270 9999 BKN010 M00/M02 Q1001
  • 140020Z AUTO VRB03KT 9999 BKN011 SCT016 M00/M02 Q1001
  • 132350Z AUTO 27003KT 220V320 9999 NSC M02/M03 Q1001
  • 132320Z AUTO 32001KT CAVOK M03/M04 Q1002
  • 132250Z AUTO 26001KT CAVOK M02/M03 Q1002

Prévision TAF périmée.



MET'MAP, la Météo Aéronautique d'un coup d'oeil ! - Copyright ORBIFLY Décembre 2007 - Disclaimer

ORBIFLY MET'MAP TEAM :

Programmation & Développement : Alexandra Zaïnal
Conception & Développement : Baudouin d'Aumeries
Co-Programmation & Développement : Marc-Olivier Méhu
Soutien technique & logistique : Manuel Goepfert

Contact : metmap@orbifly.com




SOURCES & CREDITS :

   NOAA